Mayfield, Kansas
Current Conditions -  °F | °C
As of 5:53 PM on Saturday 20 Dec 2014 (Local Time) from KICT Reporting Station
Overcast Overcast  
Wind Chill: 38°   Ceiling: 1800
Heat Index: 44°   Visibility: 10mi
Dew Point: 36°   Wind: 13mph
Humidity: 73%   Direction: 200°SSW
Pressure: 30.1"   Gusts: NA
Location:  37.26°N, 97.54°W
Report Text: KICT 202353Z 20011KT 10SM OVC018 07/02 A3010 RMK AO2 SLP200 T00670022 10094 20067 53004 $
Loading
Personal Weather Stations






























Interactive Weather Map New forecast layout! Learn more

10-Day Weather Forecast

Advertisements
Track Severe Weather on mobile